Terminal Aerodrome Forecast
Issued by NWS

Current Version | Previous Version | Text Only | Print | Product List | Glossary On
Versions: 1 2 3 4 5 6 7 8 9 10 11 12 13 14 15
000
FTUS43 KIND 010500
TAFBMG
TAF
KBMG 010527Z 0106/0206 12005KT 1SM -SN VV012
      TEMPO 0106/0110 VRB03KT 1/2SM SN FZFG VV008
     FM011000 VRB03KT 1SM -SN BR OVC005
     FM011500 30004KT 1SM -SN OVC004
     FM012100 29005KT 5SM BR OVC020
     FM020300 29007KT P6SM OVC025
      AMD LTD TO CLD VIS AND WIND TIL 011400=

USA.gov is the U.S. government's official web portal to all federal, state and local government web resources and services.